Time;durP1;ratioP1;P1;durP2;ratioP2;P2;SDS_P1;SDS_P2;PMS_P1;PMS_P2;Temp;Humidity;BMP_temperature;BMP_pressure;BME280_temperature;BME280_humidity;BME280_pressure;Samples;Min_cycle;Max_cycle;Signal;HPM_P1;HPM_P2
2022/06/13 00:01:34;;;;;;;5.40;2.50;;;;;;;;;;5061539;28;20209;-69
2022/06/13 00:04:01;;;;;;;6.60;2.58;;;;;;;;;;5061686;28;20220;-69
2022/06/13 00:06:27;;;;;;;6.32;2.65;;;;;;;;;;5061466;28;20229;-69
2022/06/13 00:08:54;;;;;;;7.72;2.90;;;;;;;;;;5061945;28;20209;-69
2022/06/13 00:11:21;;;;;;;2.25;2.15;;;;;;;;;;5061510;28;20223;-69
2022/06/13 00:13:48;;;;;;;4.63;2.47;;;;;;;;;;5061819;28;20201;-69
2022/06/13 00:16:15;;;;;;;2.38;2.20;;;;;;;;;;5061342;28;20196;-69
2022/06/13 00:18:47;;;;;;;5.45;2.53;;;;;;;;;;5062204;28;20206;-69
2022/06/13 00:21:13;;;;;;;3.20;2.38;;;;;;;;;;5062004;28;20257;-69
2022/06/13 00:23:40;;;;;;;2.00;1.90;;;;;;;;;;5064061;28;20268;-69
2022/06/13 00:26:06;;;;;;;5.75;2.50;;;;;;;;;;5065793;28;20334;-69
2022/06/13 00:28:32;;;;;;;2.35;2.05;;;;;;;;;;5065557;28;20216;-69
2022/06/13 00:30:59;;;;;;;4.38;2.50;;;;;;;;;;5065330;28;20221;-69
2022/06/13 00:33:25;;;;;;;2.50;2.28;;;;;;;;;;5065542;28;20204;-69
2022/06/13 00:35:53;;;;;;;5.28;2.63;;;;;;;;;;5065272;28;20201;-69
2022/06/13 00:38:19;;;;;;;5.68;2.78;;;;;;;;;;5065533;28;20204;-69
2022/06/13 00:40:46;;;;;;;2.42;2.28;;;;;;;;;;5065267;28;20543;-69
2022/06/13 00:43:13;;;;;;;7.43;2.50;;;;;;;;;;5065259;28;20527;-69
2022/06/13 00:45:39;;;;;;;5.45;3.03;;;;;;;;;;5064813;28;20520;-69
2022/06/13 00:48:06;;;;;;;5.30;2.67;;;;;;;;;;5065227;28;20203;-69
2022/06/13 00:50:34;;;;;;;3.63;2.80;;;;;;;;;;5064978;28;20197;-69
2022/06/13 00:53:04;;;;;;;3.22;2.70;;;;;;;;;;5065105;28;20190;-69
2022/06/13 00:55:32;;;;;;;4.10;2.65;;;;;;;;;;5065123;28;20197;-69
2022/06/13 00:57:59;;;;;;;2.88;2.55;;;;;;;;;;5064765;28;20388;-69
2022/06/13 01:00:26;;;;;;;5.05;2.63;;;;;;;;;;5064747;28;20193;-69
2022/06/13 01:02:54;;;;;;;4.00;2.30;;;;;;;;;;5065026;28;20388;-69
2022/06/13 01:05:23;;;;;;;4.68;2.53;;;;;;;;;;5064817;28;20225;-69
2022/06/13 01:07:50;;;;;;;4.07;2.15;;;;;;;;;;5064506;28;20189;-69
2022/06/13 01:13:02;;;;;;;5.20;2.47;;;;;;;;;;5064563;28;20197;-69
2022/06/13 01:15:36;;;;;;;3.30;2.50;;;;;;;;;;5064419;28;20527;-69
2022/06/13 01:18:10;;;;;;;2.65;2.50;;;;;;;;;;5064326;28;20196;-69
2022/06/13 01:20:44;;;;;;;3.95;2.78;;;;;;;;;;5064652;28;20200;-69
2022/06/13 01:23:35;;;;;;;3.67;2.92;;;;;;;;;;5064580;28;20199;-69
2022/06/13 01:26:16;;;;;;;5.30;2.70;;;;;;;;;;5064380;28;20204;-69
2022/06/13 01:28:56;;;;;;;4.25;2.50;;;;;;;;;;5064377;28;20201;-69
2022/06/13 01:31:26;;;;;;;2.15;2.05;;;;;;;;;;5064237;28;20212;-69
2022/06/13 01:33:56;;;;;;;3.60;2.40;;;;;;;;;;5064571;28;20205;-69
2022/06/13 01:36:40;;;;;;;3.72;2.33;;;;;;;;;;5063665;28;20404;-69
2022/06/13 01:39:15;;;;;;;4.93;2.60;;;;;;;;;;5063649;28;20209;-69
2022/06/13 01:41:45;;;;;;;2.70;2.40;;;;;;;;;;5064367;28;20373;-69
2022/06/13 01:44:13;;;;;;;2.35;2.25;;;;;;;;;;5064207;28;20211;-69
2022/06/13 01:46:43;;;;;;;3.30;1.98;;;;;;;;;;5063937;28;20197;-69
2022/06/13 01:49:15;;;;;;;7.00;2.58;;;;;;;;;;5063950;28;20381;-69
2022/06/13 01:51:44;;;;;;;2.63;2.38;;;;;;;;;;5064118;28;20225;-69
2022/06/13 01:54:18;;;;;;;2.90;2.70;;;;;;;;;;5063858;28;20196;-69
2022/06/13 01:56:50;;;;;;;4.80;2.30;;;;;;;;;;5063790;28;20197;-69
2022/06/13 01:59:18;;;;;;;3.17;2.60;;;;;;;;;;5063950;28;20197;-69
2022/06/13 02:01:48;;;;;;;5.60;2.40;;;;;;;;;;5063702;28;20501;-69
2022/06/13 02:04:17;;;;;;;2.45;2.28;;;;;;;;;;5063993;28;20203;-69
2022/06/13 02:06:45;;;;;;;3.17;2.35;;;;;;;;;;5063476;28;20216;-69
2022/06/13 02:09:13;;;;;;;2.60;2.40;;;;;;;;;;5063642;28;20415;-69
2022/06/13 02:11:41;;;;;;;2.83;2.60;;;;;;;;;;5063710;28;20217;-69
2022/06/13 02:14:09;;;;;;;4.43;2.70;;;;;;;;;;5063244;28;20269;-69
2022/06/13 02:16:38;;;;;;;2.95;2.53;;;;;;;;;;5063339;28;20212;-69
2022/06/13 02:19:09;;;;;;;4.43;2.53;;;;;;;;;;5063320;28;20366;-69
2022/06/13 02:21:38;;;;;;;2.78;2.50;;;;;;;;;;5063198;28;20199;-69
2022/06/13 02:24:06;;;;;;;3.00;2.67;;;;;;;;;;5063277;28;20504;-69
2022/06/13 02:26:35;;;;;;;5.60;2.67;;;;;;;;;;5063057;28;20197;-69
2022/06/13 02:29:03;;;;;;;10.88;2.83;;;;;;;;;;5063219;28;20197;-69
2022/06/13 02:31:33;;;;;;;8.27;3.10;;;;;;;;;;5063268;28;20532;-69
2022/06/13 02:34:01;;;;;;;4.80;3.05;;;;;;;;;;5063254;28;20504;-69
2022/06/13 02:36:32;;;;;;;6.97;2.67;;;;;;;;;;5062975;28;20205;-69
2022/06/13 02:39:01;;;;;;;3.75;2.85;;;;;;;;;;5063152;28;20200;-69
2022/06/13 02:41:30;;;;;;;3.08;2.85;;;;;;;;;;5062932;28;20193;-69
2022/06/13 02:43:59;;;;;;;5.55;2.80;;;;;;;;;;5063328;28;20197;-69
2022/06/13 02:46:27;;;;;;;2.65;2.45;;;;;;;;;;5061816;28;20203;-69
2022/06/13 02:48:55;;;;;;;4.50;2.55;;;;;;;;;;5062887;28;20205;-69
2022/06/13 02:51:24;;;;;;;3.72;2.78;;;;;;;;;;5062838;28;20221;-69
2022/06/13 02:53:54;;;;;;;3.15;2.90;;;;;;;;;;5062764;28;20204;-69
2022/06/13 02:56:26;;;;;;;2.75;2.55;;;;;;;;;;5062529;28;20205;-69
2022/06/13 02:58:55;;;;;;;3.83;3.10;;;;;;;;;;5063009;28;20197;-69
2022/06/13 03:01:25;;;;;;;6.22;3.70;;;;;;;;;;5062775;28;20194;-69
2022/06/13 03:03:57;;;;;;;3.58;2.83;;;;;;;;;;5062713;28;20493;-69
2022/06/13 03:06:26;;;;;;;3.95;2.95;;;;;;;;;;5062268;28;20225;-69
2022/06/13 03:08:57;;;;;;;3.40;3.10;;;;;;;;;;5062754;28;20211;-69
2022/06/13 03:11:38;;;;;;;4.28;2.70;;;;;;;;;;5062465;28;20227;-69
2022/06/13 03:14:10;;;;;;;3.63;3.13;;;;;;;;;;5060849;28;20459;-69
2022/06/13 03:16:41;;;;;;;2.70;2.50;;;;;;;;;;5062084;28;20497;-69
2022/06/13 03:19:11;;;;;;;4.70;3.30;;;;;;;;;;5062356;28;20204;-69
2022/06/13 03:21:42;;;;;;;3.97;3.40;;;;;;;;;;5062507;28;20200;-69
2022/06/13 03:24:14;;;;;;;3.40;3.10;;;;;;;;;;5062252;28;20205;-69
2022/06/13 03:26:43;;;;;;;3.22;3.03;;;;;;;;;;5062277;28;20405;-69
2022/06/13 03:29:12;;;;;;;4.75;4.32;;;;;;;;;;5062015;28;20203;-69
2022/06/13 03:31:42;;;;;;;3.75;3.45;;;;;;;;;;5062458;28;20231;-69
2022/06/13 03:34:11;;;;;;;10.35;4.72;;;;;;;;;;5062463;28;20200;-69
2022/06/13 03:36:39;;;;;;;3.90;3.67;;;;;;;;;;5062061;28;20197;-69
2022/06/13 03:39:10;;;;;;;4.70;3.78;;;;;;;;;;5062307;28;20219;-69
2022/06/13 03:41:41;;;;;;;3.60;3.30;;;;;;;;;;5062687;28;20193;-69
2022/06/13 03:44:09;;;;;;;3.33;2.88;;;;;;;;;;5062457;28;20543;-69
2022/06/13 03:46:39;;;;;;;3.78;3.17;;;;;;;;;;5062253;28;20527;-69
2022/06/13 03:49:07;;;;;;;2.78;2.53;;;;;;;;;;5062281;28;20193;-69
2022/06/13 03:51:35;;;;;;;3.45;2.70;;;;;;;;;;5062020;28;20203;-69
2022/06/13 03:54:04;;;;;;;4.40;2.30;;;;;;;;;;5062094;28;20203;-69
2022/06/13 03:56:32;;;;;;;4.75;2.70;;;;;;;;;;5061719;28;20196;-69
2022/06/13 03:59:03;;;;;;;7.90;2.65;;;;;;;;;;5064958;28;20396;-69
2022/06/13 04:01:31;;;;;;;4.57;2.38;;;;;;;;;;5066626;28;20564;-70
2022/06/13 04:04:00;;;;;;;3.95;2.50;;;;;;;;;;5068597;28;20279;-69
2022/06/13 04:06:30;;;;;;;4.72;2.85;;;;;;;;;;5065869;28;20283;-69
2022/06/13 04:08:57;;;;;;;6.32;2.95;;;;;;;;;;5065780;28;20197;-69
2022/06/13 04:11:28;;;;;;;4.20;2.05;;;;;;;;;;5065904;28;20349;-69
2022/06/13 04:13:59;;;;;;;6.05;2.70;;;;;;;;;;5065949;28;20189;-69
2022/06/13 04:16:32;;;;;;;4.07;2.30;;;;;;;;;;5065712;28;20235;-70
2022/06/13 04:19:08;;;;;;;8.30;2.75;;;;;;;;;;5065657;28;20197;-70
2022/06/13 04:21:39;;;;;;;9.88;2.60;;;;;;;;;;5065745;28;20203;-69
2022/06/13 04:24:16;;;;;;;6.78;2.67;;;;;;;;;;5065717;28;20197;-69
2022/06/13 04:26:46;;;;;;;2.88;2.17;;;;;;;;;;5065615;28;20526;-69
2022/06/13 04:29:17;;;;;;;6.75;2.28;;;;;;;;;;5065578;28;20201;-70
2022/06/13 04:31:45;;;;;;;3.92;2.28;;;;;;;;;;5065600;28;20209;-69
2022/06/13 04:34:14;;;;;;;4.13;2.42;;;;;;;;;;5065679;28;20197;-71
2022/06/13 04:36:40;;;;;;;4.80;2.55;;;;;;;;;;5065484;28;20197;-70
2022/06/13 04:39:08;;;;;;;8.77;2.80;;;;;;;;;;5065622;28;20189;-70
2022/06/13 04:41:37;;;;;;;5.85;2.97;;;;;;;;;;5065423;28;20197;-70
2022/06/13 04:44:04;;;;;;;11.00;3.33;;;;;;;;;;5065430;28;20203;-70
2022/06/13 04:46:32;;;;;;;12.15;2.95;;;;;;;;;;5065172;28;20209;-70
2022/06/13 04:49:04;;;;;;;8.43;2.50;;;;;;;;;;5065371;28;20205;-70
2022/06/13 04:51:33;;;;;;;3.35;2.60;;;;;;;;;;5065456;28;20203;-70
2022/06/13 04:54:02;;;;;;;7.85;3.33;;;;;;;;;;5065318;28;20263;-70
2022/06/13 04:56:28;;;;;;;6.68;3.42;;;;;;;;;;5064986;28;20197;-70
2022/06/13 04:58:55;;;;;;;10.10;2.78;;;;;;;;;;5064938;28;20204;-70
2022/06/13 05:01:23;;;;;;;10.65;3.28;;;;;;;;;;5065329;28;20209;-70
2022/06/13 05:03:50;;;;;;;6.57;2.53;;;;;;;;;;5065288;28;20199;-70
2022/06/13 05:06:22;;;;;;;12.32;2.92;;;;;;;;;;5064833;28;20225;-70
2022/06/13 05:08:53;;;;;;;5.65;2.67;;;;;;;;;;5064828;28;20228;-70
2022/06/13 05:11:23;;;;;;;5.70;2.58;;;;;;;;;;5064320;28;20419;-70
2022/06/13 05:13:50;;;;;;;6.28;2.85;;;;;;;;;;5050893;28;20236;-71
2022/06/13 05:16:24;;;;;;;6.30;2.70;;;;;;;;;;5057388;28;20410;-71
2022/06/13 05:19:00;;;;;;;8.48;2.70;;;;;;;;;;5056591;28;20230;-70
2022/06/13 05:21:34;;;;;;;7.15;2.42;;;;;;;;;;5045280;28;20239;-70
2022/06/13 05:24:08;;;;;;;7.10;3.03;;;;;;;;;;5056908;28;20205;-70
2022/06/13 05:26:34;;;;;;;8.50;2.75;;;;;;;;;;5057913;28;20209;-70
2022/06/13 05:29:00;;;;;;;7.38;2.58;;;;;;;;;;5058368;28;20209;-70
2022/06/13 05:31:28;;;;;;;9.93;3.03;;;;;;;;;;5058692;28;20268;-70
2022/06/13 05:33:55;;;;;;;8.23;2.92;;;;;;;;;;5058283;28;20404;-70
2022/06/13 05:36:23;;;;;;;7.38;2.78;;;;;;;;;;5057955;28;20232;-70
2022/06/13 05:38:52;;;;;;;10.63;3.15;;;;;;;;;;5058264;28;20213;-70
2022/06/13 05:41:19;;;;;;;7.63;2.95;;;;;;;;;;5058969;28;20205;-70
2022/06/13 05:43:45;;;;;;;8.05;3.25;;;;;;;;;;5057736;28;20398;-70
2022/06/13 05:46:16;;;;;;;7.55;2.95;;;;;;;;;;5057815;28;20209;-70
2022/06/13 05:48:42;;;;;;;7.75;2.63;;;;;;;;;;5057911;28;20216;-70
2022/06/13 05:51:08;;;;;;;11.18;5.60;;;;;;;;;;5057880;28;20216;-70
2022/06/13 05:53:34;;;;;;;10.73;2.83;;;;;;;;;;5057287;28;20235;-69
2022/06/13 05:56:02;;;;;;;7.63;2.55;;;;;;;;;;5057134;28;20232;-70
2022/06/13 05:58:29;;;;;;;7.25;2.88;;;;;;;;;;5057293;28;20209;-69
2022/06/13 06:00:57;;;;;;;12.30;3.17;;;;;;;;;;5052890;28;20213;-70
2022/06/13 06:03:24;;;;;;;10.48;3.05;;;;;;;;;;5037356;28;20205;-69
2022/06/13 06:05:50;;;;;;;9.05;2.90;;;;;;;;;;5036770;28;20233;-69
2022/06/13 06:08:18;;;;;;;9.27;3.25;;;;;;;;;;5046546;28;20508;-69
2022/06/13 06:10:44;;;;;;;9.88;2.90;;;;;;;;;;5056567;28;20215;-70
2022/06/13 06:13:13;;;;;;;14.05;3.30;;;;;;;;;;5057239;28;20255;-70
2022/06/13 06:15:39;;;;;;;8.13;2.28;;;;;;;;;;5057603;28;20213;-71
2022/06/13 06:18:05;;;;;;;9.63;2.55;;;;;;;;;;5057349;28;20205;-70
2022/06/13 06:20:32;;;;;;;5.40;2.47;;;;;;;;;;5057291;28;20213;-69
2022/06/13 06:22:58;;;;;;;11.65;3.33;;;;;;;;;;5057177;28;20405;-70
2022/06/13 06:25:25;;;;;;;11.82;2.85;;;;;;;;;;5057888;28;20216;-70
2022/06/13 06:27:51;;;;;;;8.07;3.03;;;;;;;;;;5057558;28;20243;-70
2022/06/13 06:30:19;;;;;;;9.65;2.92;;;;;;;;;;5057478;28;20516;-69
2022/06/13 06:32:46;;;;;;;5.05;2.40;;;;;;;;;;5057386;28;20232;-70
2022/06/13 06:35:13;;;;;;;7.57;2.50;;;;;;;;;;5058518;28;20574;-70
2022/06/13 06:37:39;;;;;;;6.68;2.42;;;;;;;;;;5057725;28;20208;-69
2022/06/13 06:40:07;;;;;;;5.95;2.53;;;;;;;;;;5057307;28;20291;-69
2022/06/13 06:42:33;;;;;;;4.32;2.20;;;;;;;;;;5057732;28;20756;-69
2022/06/13 06:45:00;;;;;;;6.90;2.60;;;;;;;;;;5057068;28;20215;-70
2022/06/13 06:47:27;;;;;;;5.97;2.40;;;;;;;;;;5057362;28;20208;-70
2022/06/13 06:49:54;;;;;;;7.60;2.92;;;;;;;;;;5057398;28;20236;-70
2022/06/13 06:52:20;;;;;;;11.13;2.50;;;;;;;;;;5056962;28;20243;-69
2022/06/13 07:00:16;;;;;;;7.82;2.70;;;;;;;;;;5057877;28;20495;-70
2022/06/13 07:02:44;;;;;;;7.43;2.55;;;;;;;;;;5056607;28;20251;-70
2022/06/13 07:05:11;;;;;;;6.13;2.40;;;;;;;;;;5056902;28;20427;-69
2022/06/13 07:07:37;;;;;;;6.95;2.50;;;;;;;;;;5057340;28;20395;-70
2022/06/13 07:10:03;;;;;;;6.18;2.10;;;;;;;;;;5057494;28;20427;-69
2022/06/13 07:12:30;;;;;;;5.05;2.30;;;;;;;;;;5046364;28;20217;-69
2022/06/13 07:14:56;;;;;;;6.60;2.20;;;;;;;;;;5036668;28;20232;-69
2022/06/13 07:17:23;;;;;;;11.85;2.50;;;;;;;;;;5036522;28;20248;-69
2022/06/13 07:19:50;;;;;;;5.72;2.45;;;;;;;;;;5036810;28;20216;-69
2022/06/13 07:22:18;;;;;;;12.90;2.45;;;;;;;;;;5040545;28;20212;-69
2022/06/13 07:24:44;;;;;;;5.88;2.47;;;;;;;;;;5056265;28;20219;-70
2022/06/13 07:27:11;;;;;;;6.88;2.00;;;;;;;;;;5056626;28;20209;-70
2022/06/13 07:29:37;;;;;;;15.95;2.95;;;;;;;;;;5056565;28;20208;-70
2022/06/13 07:32:06;;;;;;;6.05;2.22;;;;;;;;;;5056617;28;20439;-70
2022/06/13 07:34:33;;;;;;;7.13;2.40;;;;;;;;;;5055656;28;20229;-70
2022/06/13 07:37:02;;;;;;;5.90;2.53;;;;;;;;;;5056638;28;20208;-70
2022/06/13 07:39:28;;;;;;;6.65;2.45;;;;;;;;;;5056610;28;20237;-70
2022/06/13 07:41:55;;;;;;;7.78;2.55;;;;;;;;;;5056827;28;20231;-70
2022/06/13 07:44:23;;;;;;;7.00;2.58;;;;;;;;;;5042182;28;20552;-70
2022/06/13 07:46:50;;;;;;;7.18;2.63;;;;;;;;;;5036417;28;20206;-70
2022/06/13 07:49:17;;;;;;;8.00;2.42;;;;;;;;;;5036698;28;20525;-70
2022/06/13 07:51:43;;;;;;;7.97;2.10;;;;;;;;;;5036345;28;20213;-70
2022/06/13 07:54:11;;;;;;;12.23;2.85;;;;;;;;;;5043539;28;20228;-70
2022/06/13 07:56:38;;;;;;;7.47;2.33;;;;;;;;;;5056170;28;20297;-70
2022/06/13 07:59:04;;;;;;;8.73;2.50;;;;;;;;;;5056528;28;20213;-70
2022/06/13 08:01:30;;;;;;;5.65;2.58;;;;;;;;;;5055788;28;20542;-70
2022/06/13 08:03:57;;;;;;;6.00;2.30;;;;;;;;;;5055380;28;20209;-70
2022/06/13 08:06:24;;;;;;;6.05;2.30;;;;;;;;;;5055820;28;20235;-70
2022/06/13 08:08:51;;;;;;;7.28;2.20;;;;;;;;;;5056311;28;20210;-70
2022/06/13 08:11:20;;;;;;;6.00;2.50;;;;;;;;;;5056437;28;20205;-70
2022/06/13 08:13:46;;;;;;;8.43;3.45;;;;;;;;;;5055927;28;20462;-70
2022/06/13 08:16:13;;;;;;;5.97;3.00;;;;;;;;;;5038447;28;20424;-70
2022/06/13 08:18:40;;;;;;;7.32;3.03;;;;;;;;;;5036000;28;20521;-70
2022/06/13 08:21:06;;;;;;;10.43;2.50;;;;;;;;;;5035898;28;20210;-70
2022/06/13 08:23:33;;;;;;;7.13;2.30;;;;;;;;;;5036087;28;20232;-70
2022/06/13 08:25:59;;;;;;;7.25;2.58;;;;;;;;;;5035332;28;20256;-70
2022/06/13 08:28:27;;;;;;;6.43;2.22;;;;;;;;;;5036372;28;20216;-70
2022/06/13 08:30:56;;;;;;;9.73;2.85;;;;;;;;;;5036204;28;20521;-70
2022/06/13 08:33:23;;;;;;;12.10;3.50;;;;;;;;;;5035832;28;20230;-70
2022/06/13 08:35:49;;;;;;;7.97;2.70;;;;;;;;;;5035679;28;20221;-70
2022/06/13 08:38:16;;;;;;;8.68;2.08;;;;;;;;;;5036164;28;20221;-70
2022/06/13 08:40:45;;;;;;;12.25;3.35;;;;;;;;;;5035941;28;20714;-70
2022/06/13 08:43:21;;;;;;;7.53;2.58;;;;;;;;;;5035912;28;20221;-70
2022/06/13 08:45:51;;;;;;;8.95;2.65;;;;;;;;;;5037880;28;20209;-70
2022/06/13 08:48:20;;;;;;;5.43;2.53;;;;;;;;;;5039360;28;20237;-70
2022/06/13 08:50:50;;;;;;;5.90;2.33;;;;;;;;;;5039666;28;20210;-70
2022/06/13 08:53:19;;;;;;;8.38;2.88;;;;;;;;;;5038843;28;20225;-70
2022/06/13 08:55:47;;;;;;;12.00;2.85;;;;;;;;;;5039407;28;20214;-70
2022/06/13 08:58:20;;;;;;;8.20;2.80;;;;;;;;;;5038916;28;20248;-70
2022/06/13 09:00:49;;;;;;;6.68;2.50;;;;;;;;;;5039294;28;20386;-70
2022/06/13 09:03:19;;;;;;;7.70;2.50;;;;;;;;;;5038726;28;20206;-70
2022/06/13 09:05:49;;;;;;;9.30;2.28;;;;;;;;;;5038420;28;20256;-70
2022/06/13 09:08:19;;;;;;;6.03;2.38;;;;;;;;;;5046576;28;20213;-70
2022/06/13 09:10:50;;;;;;;7.38;2.92;;;;;;;;;;5058612;28;20208;-70
2022/06/13 09:13:21;;;;;;;7.07;2.58;;;;;;;;;;5058229;28;20221;-70
2022/06/13 09:15:49;;;;;;;10.85;2.38;;;;;;;;;;5058047;28;20280;-70
2022/06/13 09:18:22;;;;;;;8.88;2.67;;;;;;;;;;5048165;28;20225;-70
2022/06/13 09:20:53;;;;;;;5.43;2.50;;;;;;;;;;5038421;28;20210;-70
2022/06/13 09:23:21;;;;;;;5.72;2.38;;;;;;;;;;5041946;28;20248;-70
2022/06/13 09:25:50;;;;;;;4.20;2.28;;;;;;;;;;5057894;28;20209;-71
2022/06/13 09:28:19;;;;;;;6.70;2.25;;;;;;;;;;5057619;28;20220;-70
2022/06/13 09:30:48;;;;;;;7.75;2.85;;;;;;;;;;5058040;28;20236;-70
2022/06/13 09:33:17;;;;;;;6.32;2.55;;;;;;;;;;5057862;28;20539;-70
2022/06/13 09:35:47;;;;;;;7.68;2.38;;;;;;;;;;5057722;28;20233;-70
2022/06/13 09:38:15;;;;;;;4.63;2.17;;;;;;;;;;5057097;28;20216;-70
2022/06/13 09:40:44;;;;;;;7.75;2.22;;;;;;;;;;5058154;28;20505;-70
2022/06/13 09:43:17;;;;;;;11.10;2.50;;;;;;;;;;5057583;28;20205;-70
2022/06/13 09:45:53;;;;;;;7.38;2.20;;;;;;;;;;5057290;28;20284;-70
2022/06/13 09:48:26;;;;;;;6.18;2.10;;;;;;;;;;5058017;28;20540;-71
2022/06/13 09:50:56;;;;;;;5.03;2.00;;;;;;;;;;5057628;28;20207;-70
2022/06/13 09:53:28;;;;;;;4.82;1.88;;;;;;;;;;5057762;28;20220;-70
2022/06/13 09:55:59;;;;;;;6.07;1.90;;;;;;;;;;5048749;28;20213;-70
2022/06/13 09:58:36;;;;;;;6.18;1.70;;;;;;;;;;5038345;28;20240;-70
2022/06/13 10:01:05;;;;;;;7.07;2.25;;;;;;;;;;5054356;28;20212;-70
2022/06/13 10:03:36;;;;;;;5.90;2.00;;;;;;;;;;5058241;28;20254;-70
2022/06/13 10:06:08;;;;;;;6.82;2.05;;;;;;;;;;5057651;28;20240;-70
2022/06/13 10:08:40;;;;;;;3.38;1.60;;;;;;;;;;5057739;28;20236;-70
2022/06/13 10:11:10;;;;;;;4.40;1.52;;;;;;;;;;5044515;28;20255;-70
2022/06/13 10:13:44;;;;;;;3.97;1.50;;;;;;;;;;5037347;28;20225;-70
2022/06/13 10:16:15;;;;;;;6.72;2.17;;;;;;;;;;5037377;28;20213;-70
2022/06/13 10:18:47;;;;;;;3.10;1.83;;;;;;;;;;5037790;28;20209;-70
2022/06/13 10:21:19;;;;;;;5.22;2.30;;;;;;;;;;5037209;28;20445;-70
2022/06/13 10:23:52;;;;;;;4.63;1.70;;;;;;;;;;5037186;28;20312;-70
2022/06/13 10:26:22;;;;;;;5.38;1.70;;;;;;;;;;5037137;28;20216;-70
2022/06/13 10:28:55;;;;;;;6.90;1.40;;;;;;;;;;5037579;28;20513;-70
2022/06/13 10:31:25;;;;;;;4.80;1.98;;;;;;;;;;5044223;28;20218;-70
2022/06/13 10:33:55;;;;;;;4.03;1.63;;;;;;;;;;5057550;28;20247;-70
2022/06/13 10:36:26;;;;;;;7.25;1.75;;;;;;;;;;5057354;28;20204;-70
2022/06/13 10:38:56;;;;;;;7.72;1.70;;;;;;;;;;5057721;28;20215;-70
2022/06/13 10:41:23;;;;;;;7.80;2.05;;;;;;;;;;5057582;28;20417;-70
2022/06/13 10:43:50;;;;;;;6.88;1.73;;;;;;;;;;5057354;28;20406;-70
2022/06/13 10:46:16;;;;;;;5.32;1.60;;;;;;;;;;5056973;28;20223;-70
2022/06/13 10:48:44;;;;;;;4.93;1.48;;;;;;;;;;5057130;28;20204;-70
2022/06/13 10:51:11;;;;;;;4.15;1.60;;;;;;;;;;5056871;28;20425;-70
2022/06/13 10:53:41;;;;;;;3.20;1.58;;;;;;;;;;5056297;28;20536;-70
2022/06/13 10:56:11;;;;;;;4.78;1.70;;;;;;;;;;5056692;28;20212;-70
2022/06/13 10:58:39;;;;;;;5.15;1.65;;;;;;;;;;5056914;28;20407;-70
2022/06/13 11:01:10;;;;;;;3.20;1.60;;;;;;;;;;5056874;28;20215;-70
2022/06/13 11:03:37;;;;;;;1.60;1.30;;;;;;;;;;5055755;28;20219;-70
2022/06/13 11:06:05;;;;;;;7.57;1.77;;;;;;;;;;5041382;28;20241;-70
2022/06/13 11:08:33;;;;;;;8.95;2.00;;;;;;;;;;5046630;28;20285;-70
2022/06/13 11:11:02;;;;;;;5.80;1.80;;;;;;;;;;5056846;28;20215;-70
2022/06/13 11:13:29;;;;;;;3.05;1.80;;;;;;;;;;5055749;28;20295;-70
2022/06/13 11:24:15;;;;;;;5.78;1.70;;;;;;;;;;5055839;28;20227;-70
2022/06/13 11:29:28;;;;;;;4.47;1.77;;;;;;;;;;5056611;28;20268;-70
2022/06/13 11:31:55;;;;;;;3.63;1.70;;;;;;;;;;5056624;28;20214;-70
2022/06/13 11:34:24;;;;;;;4.28;1.50;;;;;;;;;;5055650;28;20527;-70
2022/06/13 11:36:58;;;;;;;5.70;4.20;;;;;;;;;;5055831;28;20214;-70
2022/06/13 11:39:31;;;;;;;2.83;1.50;;;;;;;;;;5056368;28;20763;-70
2022/06/13 11:41:58;;;;;;;4.03;1.65;;;;;;;;;;5056361;28;20495;-70
2022/06/13 11:44:25;;;;;;;4.22;1.80;;;;;;;;;;5055436;28;20205;-70
2022/06/13 11:46:56;;;;;;;3.80;1.30;;;;;;;;;;5056119;28;20409;-70
2022/06/13 11:49:25;;;;;;;4.10;1.63;;;;;;;;;;5056135;28;20219;-70
2022/06/13 11:51:54;;;;;;;4.55;1.52;;;;;;;;;;5056319;28;20211;-70
2022/06/13 11:54:22;;;;;;;5.97;1.48;;;;;;;;;;5056129;28;20541;-70
2022/06/13 11:56:48;;;;;;;4.18;2.28;;;;;;;;;;5055683;28;20443;-70
2022/06/13 11:59:17;;;;;;;7.03;1.52;;;;;;;;;;5056178;28;20512;-70
2022/06/13 12:01:44;;;;;;;3.22;1.42;;;;;;;;;;5056100;28;20411;-70
2022/06/13 12:04:16;;;;;;;3.67;1.90;;;;;;;;;;5055864;28;20212;-70
2022/06/13 12:06:44;;;;;;;2.95;1.30;;;;;;;;;;5055437;28;20239;-70
2022/06/13 12:09:15;;;;;;;4.57;1.40;;;;;;;;;;5056283;28;20200;-70
2022/06/13 12:11:43;;;;;;;3.25;1.60;;;;;;;;;;5056242;28;20209;-70
2022/06/13 12:14:09;;;;;;;5.05;1.77;;;;;;;;;;5055387;28;20220;-70
2022/06/13 12:16:39;;;;;;;8.55;1.77;;;;;;;;;;5045275;28;20219;-70
2022/06/13 12:19:13;;;;;;;3.30;1.48;;;;;;;;;;5037191;28;20213;-71
2022/06/13 12:21:45;;;;;;;1.92;1.60;;;;;;;;;;5040044;28;20209;-70
2022/06/13 12:24:15;;;;;;;6.30;1.73;;;;;;;;;;5039537;28;20213;-70
2022/06/13 12:26:43;;;;;;;3.35;1.52;;;;;;;;;;5039252;28;20223;-70
2022/06/13 12:29:19;;;;;;;3.45;1.65;;;;;;;;;;5039657;28;20210;-70
2022/06/13 12:31:50;;;;;;;3.60;1.50;;;;;;;;;;5039741;28;20217;-70
2022/06/13 12:34:20;;;;;;;3.80;1.27;;;;;;;;;;5039330;28;20232;-70
2022/06/13 12:37:11;;;;;;;2.45;1.50;;;;;;;;;;5038737;28;20569;-70
2022/06/13 12:39:46;;;;;;;5.80;1.27;;;;;;;;;;5039437;28;20210;-70
2022/06/13 12:42:17;;;;;;;3.33;1.55;;;;;;;;;;5039386;28;20208;-70
2022/06/13 12:44:50;;;;;;;3.55;1.20;;;;;;;;;;5039289;28;20209;-70
2022/06/13 12:47:22;;;;;;;3.65;1.30;;;;;;;;;;5038778;28;20476;-70
2022/06/13 12:49:59;;;;;;;5.05;1.48;;;;;;;;;;5039245;28;20382;-70
2022/06/13 12:52:31;;;;;;;3.65;1.30;;;;;;;;;;5039707;28;20216;-70
2022/06/13 12:55:00;;;;;;;3.05;1.27;;;;;;;;;;5038987;28;20435;-70
2022/06/13 12:57:42;;;;;;;4.78;1.48;;;;;;;;;;5038814;28;20436;-70
2022/06/13 13:00:11;;;;;;;5.78;1.40;;;;;;;;;;5039236;28;20216;-70
2022/06/13 13:02:54;;;;;;;5.20;1.73;;;;;;;;;;5039166;28;20217;-70
2022/06/13 13:05:25;;;;;;;2.65;1.30;;;;;;;;;;5039048;28;20229;-70
2022/06/13 13:08:04;;;;;;;3.40;1.10;;;;;;;;;;5044251;28;20223;-70
2022/06/13 13:10:34;;;;;;;2.97;1.30;;;;;;;;;;5039136;28;20209;-70
2022/06/13 13:13:21;;;;;;;1.42;1.30;;;;;;;;;;5038733;28;20481;-70
2022/06/13 13:15:51;;;;;;;1.95;1.20;;;;;;;;;;5038683;28;20256;-60
2022/06/13 13:18:24;;;;;;;2.78;1.40;;;;;;;;;;5039210;28;20561;-60
2022/06/13 13:20:53;;;;;;;3.75;1.38;;;;;;;;;;5057806;28;20212;-60
2022/06/13 13:23:22;;;;;;;2.30;1.10;;;;;;;;;;5057532;28;20212;-60
2022/06/13 13:25:55;;;;;;;1.52;1.13;;;;;;;;;;5057772;28;20201;-62
2022/06/13 13:28:25;;;;;;;3.13;1.08;;;;;;;;;;5057099;28;20385;-62
2022/06/13 13:30:55;;;;;;;3.45;1.50;;;;;;;;;;5056256;28;20553;-62
2022/06/13 13:33:39;;;;;;;4.18;1.30;;;;;;;;;;5057304;28;20220;-61
2022/06/13 13:36:08;;;;;;;2.67;1.20;;;;;;;;;;5056326;28;20462;-60
2022/06/13 13:38:36;;;;;;;1.25;0.85;;;;;;;;;;5053124;28;20531;-62
2022/06/13 13:41:03;;;;;;;1.95;0.90;;;;;;;;;;5046620;28;20217;-62
2022/06/13 13:43:33;;;;;;;3.90;1.10;;;;;;;;;;5037122;28;20220;-60
2022/06/13 13:46:05;;;;;;;3.10;1.20;;;;;;;;;;5054476;28;20435;-61
2022/06/13 13:48:35;;;;;;;1.60;1.15;;;;;;;;;;5057118;28;20247;-61
2022/06/13 13:51:03;;;;;;;2.53;1.45;;;;;;;;;;5056439;28;20219;-61
2022/06/13 13:53:34;;;;;;;4.50;1.38;;;;;;;;;;5056886;28;20219;-61
2022/06/13 13:56:03;;;;;;;3.83;1.38;;;;;;;;;;5056415;28;20232;-61
2022/06/13 13:58:31;;;;;;;3.80;1.10;;;;;;;;;;5056683;28;20218;-60
2022/06/13 14:01:05;;;;;;;1.38;1.00;;;;;;;;;;5056409;28;20412;-60
2022/06/13 14:03:38;;;;;;;4.70;1.20;;;;;;;;;;5056414;28;20267;-61
2022/06/13 14:06:07;;;;;;;5.13;1.20;;;;;;;;;;5041545;28;20599;-61
2022/06/13 14:08:36;;;;;;;3.10;1.15;;;;;;;;;;5037150;28;20449;-59
2022/06/13 14:11:05;;;;;;;2.78;1.23;;;;;;;;;;5040427;28;20212;-61
2022/06/13 14:13:32;;;;;;;6.43;1.20;;;;;;;;;;5056079;28;20215;-61
2022/06/13 14:16:06;;;;;;;2.72;0.90;;;;;;;;;;5056210;28;20262;-61
2022/06/13 14:18:39;;;;;;;2.17;1.20;;;;;;;;;;5056248;28;20412;-63
2022/06/13 14:21:07;;;;;;;5.70;1.10;;;;;;;;;;5056756;28;20204;-62
2022/06/13 14:23:36;;;;;;;2.65;0.95;;;;;;;;;;5056422;28;20219;-62
2022/06/13 14:26:03;;;;;;;4.30;1.23;;;;;;;;;;5055997;28;20221;-62
2022/06/13 14:28:44;;;;;;;3.50;1.15;;;;;;;;;;5056205;28;20535;-62
2022/06/13 14:31:11;;;;;;;3.40;1.08;;;;;;;;;;5041073;28;20217;-62
2022/06/13 14:37:02;;;;;;;6.10;1.02;;;;;;;;;;5036554;28;20227;-63
2022/06/13 14:39:34;;;;;;;3.53;1.00;;;;;;;;;;5053805;28;20702;-63
2022/06/13 14:42:02;;;;;;;5.35;1.23;;;;;;;;;;5038069;28;20211;-61
2022/06/13 14:44:33;;;;;;;3.10;1.23;;;;;;;;;;5035222;28;20221;-62
2022/06/13 14:47:05;;;;;;;2.40;1.25;;;;;;;;;;5035908;28;20213;-61
2022/06/13 14:49:39;;;;;;;2.55;1.10;;;;;;;;;;5036426;28;20407;-61
2022/06/13 14:52:11;;;;;;;3.95;1.40;;;;;;;;;;5035728;28;20217;-61
2022/06/13 14:54:41;;;;;;;8.30;1.13;;;;;;;;;;5034941;28;20213;-61
2022/06/13 14:57:22;;;;;;;3.03;0.95;;;;;;;;;;5035127;28;20220;-61
2022/06/13 15:00:06;;;;;;;3.55;1.45;;;;;;;;;;5052131;28;20220;-61
2022/06/13 15:02:34;;;;;;;2.88;1.23;;;;;;;;;;5055139;28;20212;-60
2022/06/13 15:05:01;;;;;;;4.20;1.13;;;;;;;;;;5036745;28;20229;-60
2022/06/13 15:07:33;;;;;;;3.45;1.45;;;;;;;;;;5048075;28;20434;-62
2022/06/13 15:10:05;;;;;;;1.65;1.05;;;;;;;;;;5035628;28;20280;-61
2022/06/13 15:12:38;;;;;;;7.45;1.27;;;;;;;;;;5035644;28;20428;-63
2022/06/13 15:15:07;;;;;;;3.05;1.05;;;;;;;;;;5048704;28;20232;-62
2022/06/13 15:17:34;;;;;;;4.75;1.20;;;;;;;;;;5055205;28;20436;-62
2022/06/13 15:20:02;;;;;;;1.45;1.10;;;;;;;;;;5037514;28;20285;-62